Terminal Aerodrome Forecast
Issued by NWS

Home | Current Version | Previous Version | Text Only | Print | Product List | Glossary On
Versions: 1 2 3 4 5 6 7 8 9 10
000
FTUS43 KFGF 272300
TAFDVL
TAF
KDVL 272339Z 2800/2824 27003KT P6SM OVC023
      TEMPO 2800/2802 3SM -SN BR OVC010
     FM280200 35009KT P6SM OVC025
     FM281000 36009KT P6SM SCT250
      AMD LTD TO CLD VIS AND WIND=

USA.gov is the U.S. government's official web portal to all federal, state and local government web resources and services.